sensor_id;sensor_type;location;lat;lon;timestamp;P1;durP1;ratioP1;P2;durP2;ratioP2
21647;SDS011;10985;54.182;7.890;2023-08-21T00:02:17;19.15;;;4.80;;
21647;SDS011;10985;54.182;7.890;2023-08-21T00:04:43;18.95;;;4.68;;
21647;SDS011;10985;54.182;7.890;2023-08-21T00:07:08;19.60;;;4.55;;
21647;SDS011;10985;54.182;7.890;2023-08-21T00:09:34;19.17;;;4.70;;
21647;SDS011;10985;54.182;7.890;2023-08-21T00:12:00;19.95;;;5.07;;
21647;SDS011;10985;54.182;7.890;2023-08-21T00:14:25;22.77;;;4.90;;
21647;SDS011;10985;54.182;7.890;2023-08-21T00:16:51;28.60;;;5.72;;
21647;SDS011;10985;54.182;7.890;2023-08-21T00:19:16;20.85;;;5.32;;
21647;SDS011;10985;54.182;7.890;2023-08-21T00:21:42;22.02;;;5.38;;
21647;SDS011;10985;54.182;7.890;2023-08-21T00:24:07;18.85;;;5.45;;
21647;SDS011;10985;54.182;7.890;2023-08-21T00:26:33;18.50;;;5.28;;
21647;SDS011;10985;54.182;7.890;2023-08-21T00:28:58;24.08;;;6.00;;
21647;SDS011;10985;54.182;7.890;2023-08-21T00:31:24;20.67;;;4.85;;
21647;SDS011;10985;54.182;7.890;2023-08-21T00:33:49;11.55;;;4.43;;
21647;SDS011;10985;54.182;7.890;2023-08-21T00:36:15;16.17;;;3.83;;
21647;SDS011;10985;54.182;7.890;2023-08-21T00:38:41;15.18;;;4.40;;
21647;SDS011;10985;54.182;7.890;2023-08-21T00:41:06;17.45;;;5.22;;
21647;SDS011;10985;54.182;7.890;2023-08-21T00:43:32;15.77;;;4.47;;
21647;SDS011;10985;54.182;7.890;2023-08-21T00:45:57;18.33;;;4.88;;
21647;SDS011;10985;54.182;7.890;2023-08-21T00:48:23;12.90;;;3.95;;
21647;SDS011;10985;54.182;7.890;2023-08-21T00:50:49;17.85;;;4.30;;
21647;SDS011;10985;54.182;7.890;2023-08-21T00:53:15;14.05;;;4.18;;
21647;SDS011;10985;54.182;7.890;2023-08-21T00:55:41;14.65;;;3.53;;
21647;SDS011;10985;54.182;7.890;2023-08-21T00:58:08;14.77;;;3.72;;
21647;SDS011;10985;54.182;7.890;2023-08-21T01:00:37;12.95;;;4.03;;
21647;SDS011;10985;54.182;7.890;2023-08-21T01:03:03;12.73;;;3.53;;
21647;SDS011;10985;54.182;7.890;2023-08-21T01:05:29;15.05;;;3.70;;
21647;SDS011;10985;54.182;7.890;2023-08-21T01:08:05;13.63;;;3.05;;
21647;SDS011;10985;54.182;7.890;2023-08-21T01:16:03;20.75;;;4.35;;
21647;SDS011;10985;54.182;7.890;2023-08-21T01:18:30;18.42;;;3.53;;
21647;SDS011;10985;54.182;7.890;2023-08-21T01:20:58;11.95;;;3.38;;
21647;SDS011;10985;54.182;7.890;2023-08-21T01:23:29;12.60;;;3.17;;
21647;SDS011;10985;54.182;7.890;2023-08-21T01:25:55;15.10;;;3.97;;
21647;SDS011;10985;54.182;7.890;2023-08-21T01:28:21;17.75;;;4.00;;
21647;SDS011;10985;54.182;7.890;2023-08-21T01:30:46;13.80;;;3.38;;
21647;SDS011;10985;54.182;7.890;2023-08-21T01:33:15;12.70;;;3.35;;
21647;SDS011;10985;54.182;7.890;2023-08-21T01:35:42;13.35;;;3.60;;
21647;SDS011;10985;54.182;7.890;2023-08-21T01:38:08;18.35;;;3.95;;
21647;SDS011;10985;54.182;7.890;2023-08-21T01:40:33;11.93;;;3.45;;
21647;SDS011;10985;54.182;7.890;2023-08-21T01:42:59;12.60;;;4.00;;
21647;SDS011;10985;54.182;7.890;2023-08-21T01:45:24;15.75;;;4.18;;
21647;SDS011;10985;54.182;7.890;2023-08-21T01:47:51;13.07;;;3.97;;
21647;SDS011;10985;54.182;7.890;2023-08-21T01:50:16;12.77;;;3.60;;
21647;SDS011;10985;54.182;7.890;2023-08-21T01:52:42;15.65;;;3.83;;
21647;SDS011;10985;54.182;7.890;2023-08-21T01:55:07;11.75;;;3.70;;
21647;SDS011;10985;54.182;7.890;2023-08-21T01:57:33;13.63;;;3.83;;
21647;SDS011;10985;54.182;7.890;2023-08-21T01:59:59;10.38;;;3.20;;
21647;SDS011;10985;54.182;7.890;2023-08-21T02:02:24;13.10;;;3.47;;
21647;SDS011;10985;54.182;7.890;2023-08-21T02:04:50;18.23;;;4.03;;
21647;SDS011;10985;54.182;7.890;2023-08-21T02:07:15;14.48;;;3.97;;
21647;SDS011;10985;54.182;7.890;2023-08-21T02:09:41;17.52;;;3.50;;
21647;SDS011;10985;54.182;7.890;2023-08-21T02:12:06;10.13;;;3.30;;
21647;SDS011;10985;54.182;7.890;2023-08-21T02:14:32;11.30;;;3.10;;
21647;SDS011;10985;54.182;7.890;2023-08-21T02:16:57;13.60;;;3.30;;
21647;SDS011;10985;54.182;7.890;2023-08-21T02:19:23;21.80;;;3.97;;
21647;SDS011;10985;54.182;7.890;2023-08-21T02:21:48;13.30;;;3.30;;
21647;SDS011;10985;54.182;7.890;2023-08-21T02:24:14;11.07;;;3.25;;
21647;SDS011;10985;54.182;7.890;2023-08-21T02:26:39;15.73;;;3.40;;
21647;SDS011;10985;54.182;7.890;2023-08-21T02:29:05;12.57;;;3.42;;
21647;SDS011;10985;54.182;7.890;2023-08-21T02:31:31;10.32;;;2.80;;
21647;SDS011;10985;54.182;7.890;2023-08-21T02:33:56;14.95;;;3.30;;
21647;SDS011;10985;54.182;7.890;2023-08-21T02:36:22;10.98;;;3.60;;
21647;SDS011;10985;54.182;7.890;2023-08-21T02:38:49;10.75;;;3.03;;
21647;SDS011;10985;54.182;7.890;2023-08-21T02:41:14;10.80;;;3.17;;
21647;SDS011;10985;54.182;7.890;2023-08-21T02:43:40;10.90;;;3.47;;
21647;SDS011;10985;54.182;7.890;2023-08-21T02:46:05;17.33;;;3.78;;
21647;SDS011;10985;54.182;7.890;2023-08-21T02:48:31;14.65;;;3.45;;
21647;SDS011;10985;54.182;7.890;2023-08-21T02:50:56;14.48;;;3.85;;
21647;SDS011;10985;54.182;7.890;2023-08-21T02:53:22;10.93;;;2.83;;
21647;SDS011;10985;54.182;7.890;2023-08-21T02:55:48;13.18;;;3.42;;
21647;SDS011;10985;54.182;7.890;2023-08-21T02:58:14;15.30;;;3.17;;
21647;SDS011;10985;54.182;7.890;2023-08-21T03:00:39;12.95;;;3.42;;
21647;SDS011;10985;54.182;7.890;2023-08-21T03:03:05;13.07;;;3.70;;
21647;SDS011;10985;54.182;7.890;2023-08-21T03:05:30;14.05;;;3.53;;
21647;SDS011;10985;54.182;7.890;2023-08-21T03:07:56;16.73;;;3.70;;
21647;SDS011;10985;54.182;7.890;2023-08-21T03:10:21;10.07;;;3.63;;
21647;SDS011;10985;54.182;7.890;2023-08-21T03:12:48;10.15;;;3.45;;
21647;SDS011;10985;54.182;7.890;2023-08-21T03:15:14;11.63;;;3.72;;
21647;SDS011;10985;54.182;7.890;2023-08-21T03:17:40;14.07;;;3.30;;
21647;SDS011;10985;54.182;7.890;2023-08-21T03:20:06;15.60;;;3.55;;
21647;SDS011;10985;54.182;7.890;2023-08-21T03:22:32;13.52;;;3.20;;
21647;SDS011;10985;54.182;7.890;2023-08-21T03:24:57;12.55;;;3.30;;
21647;SDS011;10985;54.182;7.890;2023-08-21T03:27:24;13.38;;;3.58;;
21647;SDS011;10985;54.182;7.890;2023-08-21T03:29:49;15.57;;;3.40;;
21647;SDS011;10985;54.182;7.890;2023-08-21T03:32:15;11.20;;;3.90;;
21647;SDS011;10985;54.182;7.890;2023-08-21T03:34:41;15.13;;;4.13;;
21647;SDS011;10985;54.182;7.890;2023-08-21T03:37:07;16.25;;;3.70;;
21647;SDS011;10985;54.182;7.890;2023-08-21T03:39:33;11.85;;;3.72;;
21647;SDS011;10985;54.182;7.890;2023-08-21T03:41:58;12.35;;;3.30;;
21647;SDS011;10985;54.182;7.890;2023-08-21T03:44:24;12.38;;;4.00;;
21647;SDS011;10985;54.182;7.890;2023-08-21T03:46:49;13.88;;;4.15;;
21647;SDS011;10985;54.182;7.890;2023-08-21T03:49:15;13.57;;;3.25;;
21647;SDS011;10985;54.182;7.890;2023-08-21T03:51:40;12.25;;;3.65;;
21647;SDS011;10985;54.182;7.890;2023-08-21T03:54:06;13.57;;;3.58;;
21647;SDS011;10985;54.182;7.890;2023-08-21T03:56:31;11.23;;;3.50;;
21647;SDS011;10985;54.182;7.890;2023-08-21T03:58:57;14.80;;;3.67;;
21647;SDS011;10985;54.182;7.890;2023-08-21T04:01:22;13.88;;;3.75;;
21647;SDS011;10985;54.182;7.890;2023-08-21T04:03:48;13.82;;;3.72;;
21647;SDS011;10985;54.182;7.890;2023-08-21T04:06:13;13.27;;;3.67;;
21647;SDS011;10985;54.182;7.890;2023-08-21T04:08:39;14.60;;;3.85;;
21647;SDS011;10985;54.182;7.890;2023-08-21T04:11:05;10.50;;;3.28;;
21647;SDS011;10985;54.182;7.890;2023-08-21T04:13:31;12.70;;;4.30;;
21647;SDS011;10985;54.182;7.890;2023-08-21T04:15:57;9.15;;;3.53;;
21647;SDS011;10985;54.182;7.890;2023-08-21T04:18:22;15.35;;;3.85;;
21647;SDS011;10985;54.182;7.890;2023-08-21T04:20:48;11.50;;;3.33;;
21647;SDS011;10985;54.182;7.890;2023-08-21T04:23:14;11.55;;;3.78;;
21647;SDS011;10985;54.182;7.890;2023-08-21T04:25:40;12.40;;;3.83;;
21647;SDS011;10985;54.182;7.890;2023-08-21T04:28:05;15.60;;;3.88;;
21647;SDS011;10985;54.182;7.890;2023-08-21T04:30:32;10.05;;;3.70;;
21647;SDS011;10985;54.182;7.890;2023-08-21T04:32:58;9.05;;;4.07;;
21647;SDS011;10985;54.182;7.890;2023-08-21T04:35:24;14.10;;;4.25;;
21647;SDS011;10985;54.182;7.890;2023-08-21T04:37:49;19.50;;;4.70;;
21647;SDS011;10985;54.182;7.890;2023-08-21T04:40:15;10.70;;;3.75;;
21647;SDS011;10985;54.182;7.890;2023-08-21T04:42:42;16.08;;;4.50;;
21647;SDS011;10985;54.182;7.890;2023-08-21T04:45:09;15.52;;;4.03;;
21647;SDS011;10985;54.182;7.890;2023-08-21T04:47:34;18.42;;;4.20;;
21647;SDS011;10985;54.182;7.890;2023-08-21T04:50:00;8.90;;;3.72;;
21647;SDS011;10985;54.182;7.890;2023-08-21T04:52:25;10.50;;;3.60;;
21647;SDS011;10985;54.182;7.890;2023-08-21T04:54:51;9.82;;;3.78;;
21647;SDS011;10985;54.182;7.890;2023-08-21T04:57:17;11.63;;;3.65;;
21647;SDS011;10985;54.182;7.890;2023-08-21T04:59:43;12.23;;;4.50;;
21647;SDS011;10985;54.182;7.890;2023-08-21T05:02:09;14.82;;;4.03;;
21647;SDS011;10985;54.182;7.890;2023-08-21T05:04:38;13.23;;;3.70;;
21647;SDS011;10985;54.182;7.890;2023-08-21T05:07:04;17.25;;;4.38;;
21647;SDS011;10985;54.182;7.890;2023-08-21T05:09:30;16.05;;;4.20;;
21647;SDS011;10985;54.182;7.890;2023-08-21T05:11:56;17.10;;;4.25;;
21647;SDS011;10985;54.182;7.890;2023-08-21T05:14:22;16.13;;;4.40;;
21647;SDS011;10985;54.182;7.890;2023-08-21T05:16:51;13.68;;;4.30;;
21647;SDS011;10985;54.182;7.890;2023-08-21T05:19:16;15.60;;;3.70;;
21647;SDS011;10985;54.182;7.890;2023-08-21T05:21:42;14.68;;;3.92;;
21647;SDS011;10985;54.182;7.890;2023-08-21T05:24:08;17.50;;;3.88;;
21647;SDS011;10985;54.182;7.890;2023-08-21T05:26:35;14.85;;;4.18;;
21647;SDS011;10985;54.182;7.890;2023-08-21T05:29:01;14.10;;;4.55;;
21647;SDS011;10985;54.182;7.890;2023-08-21T05:31:26;11.30;;;3.67;;
21647;SDS011;10985;54.182;7.890;2023-08-21T05:33:52;17.20;;;7.43;;
21647;SDS011;10985;54.182;7.890;2023-08-21T05:36:17;10.40;;;4.53;;
21647;SDS011;10985;54.182;7.890;2023-08-21T05:38:43;12.07;;;4.13;;
21647;SDS011;10985;54.182;7.890;2023-08-21T05:41:08;12.20;;;4.10;;
21647;SDS011;10985;54.182;7.890;2023-08-21T05:43:34;11.55;;;3.97;;
21647;SDS011;10985;54.182;7.890;2023-08-21T05:45:59;14.00;;;4.55;;
21647;SDS011;10985;54.182;7.890;2023-08-21T05:48:25;14.50;;;5.35;;
21647;SDS011;10985;54.182;7.890;2023-08-21T05:50:51;16.23;;;5.05;;
21647;SDS011;10985;54.182;7.890;2023-08-21T05:53:17;11.10;;;4.28;;
21647;SDS011;10985;54.182;7.890;2023-08-21T05:55:42;19.10;;;4.93;;
21647;SDS011;10985;54.182;7.890;2023-08-21T05:58:08;22.10;;;4.25;;
21647;SDS011;10985;54.182;7.890;2023-08-21T06:00:33;10.48;;;3.25;;
21647;SDS011;10985;54.182;7.890;2023-08-21T06:03:00;19.63;;;6.43;;
21647;SDS011;10985;54.182;7.890;2023-08-21T06:05:25;15.73;;;5.93;;
21647;SDS011;10985;54.182;7.890;2023-08-21T06:07:51;17.02;;;4.57;;
21647;SDS011;10985;54.182;7.890;2023-08-21T06:10:17;15.88;;;5.53;;
21647;SDS011;10985;54.182;7.890;2023-08-21T06:12:42;14.30;;;5.07;;
21647;SDS011;10985;54.182;7.890;2023-08-21T06:15:08;14.55;;;4.57;;
21647;SDS011;10985;54.182;7.890;2023-08-21T06:17:34;16.90;;;4.50;;
21647;SDS011;10985;54.182;7.890;2023-08-21T06:20:00;13.93;;;4.47;;
21647;SDS011;10985;54.182;7.890;2023-08-21T06:22:26;11.52;;;4.10;;
21647;SDS011;10985;54.182;7.890;2023-08-21T06:24:51;18.30;;;4.68;;
21647;SDS011;10985;54.182;7.890;2023-08-21T06:27:17;12.35;;;4.50;;
21647;SDS011;10985;54.182;7.890;2023-08-21T06:29:42;16.00;;;3.80;;
21647;SDS011;10985;54.182;7.890;2023-08-21T06:32:08;13.68;;;4.07;;
21647;SDS011;10985;54.182;7.890;2023-08-21T06:34:33;12.05;;;3.42;;
21647;SDS011;10985;54.182;7.890;2023-08-21T06:36:59;13.98;;;3.90;;
21647;SDS011;10985;54.182;7.890;2023-08-21T06:39:25;12.75;;;4.25;;
21647;SDS011;10985;54.182;7.890;2023-08-21T06:41:51;10.85;;;3.90;;
21647;SDS011;10985;54.182;7.890;2023-08-21T06:44:16;11.90;;;3.58;;
21647;SDS011;10985;54.182;7.890;2023-08-21T06:46:42;13.10;;;3.33;;
21647;SDS011;10985;54.182;7.890;2023-08-21T06:49:08;11.80;;;3.00;;
21647;SDS011;10985;54.182;7.890;2023-08-21T06:51:33;11.30;;;3.33;;
21647;SDS011;10985;54.182;7.890;2023-08-21T06:53:59;12.68;;;3.67;;
21647;SDS011;10985;54.182;7.890;2023-08-21T06:56:24;13.65;;;3.90;;
21647;SDS011;10985;54.182;7.890;2023-08-21T06:58:50;13.15;;;3.85;;
21647;SDS011;10985;54.182;7.890;2023-08-21T07:01:16;13.13;;;4.10;;
21647;SDS011;10985;54.182;7.890;2023-08-21T07:03:42;10.40;;;3.13;;
21647;SDS011;10985;54.182;7.890;2023-08-21T07:06:08;9.38;;;3.58;;
21647;SDS011;10985;54.182;7.890;2023-08-21T07:08:33;12.07;;;3.10;;
21647;SDS011;10985;54.182;7.890;2023-08-21T07:11:01;11.48;;;3.20;;
21647;SDS011;10985;54.182;7.890;2023-08-21T07:13:29;12.35;;;3.50;;
21647;SDS011;10985;54.182;7.890;2023-08-21T07:15:54;13.75;;;3.55;;
21647;SDS011;10985;54.182;7.890;2023-08-21T07:18:20;12.60;;;3.30;;
21647;SDS011;10985;54.182;7.890;2023-08-21T07:20:46;12.55;;;3.55;;
21647;SDS011;10985;54.182;7.890;2023-08-21T07:23:11;10.38;;;3.00;;
21647;SDS011;10985;54.182;7.890;2023-08-21T07:25:37;8.70;;;3.08;;
21647;SDS011;10985;54.182;7.890;2023-08-21T07:28:02;8.80;;;3.28;;
21647;SDS011;10985;54.182;7.890;2023-08-21T07:30:28;6.38;;;2.47;;
21647;SDS011;10985;54.182;7.890;2023-08-21T07:32:54;8.93;;;3.00;;
21647;SDS011;10985;54.182;7.890;2023-08-21T07:35:19;9.55;;;2.78;;
21647;SDS011;10985;54.182;7.890;2023-08-21T07:37:45;12.55;;;3.80;;
21647;SDS011;10985;54.182;7.890;2023-08-21T07:40:11;10.05;;;3.20;;
21647;SDS011;10985;54.182;7.890;2023-08-21T07:42:37;10.15;;;3.00;;
21647;SDS011;10985;54.182;7.890;2023-08-21T07:45:03;8.95;;;3.45;;
21647;SDS011;10985;54.182;7.890;2023-08-21T07:47:29;14.35;;;3.50;;
21647;SDS011;10985;54.182;7.890;2023-08-21T07:49:55;8.13;;;2.85;;
21647;SDS011;10985;54.182;7.890;2023-08-21T07:52:21;10.32;;;3.90;;
21647;SDS011;10985;54.182;7.890;2023-08-21T07:54:47;9.15;;;3.28;;
21647;SDS011;10985;54.182;7.890;2023-08-21T07:57:17;13.52;;;3.30;;
21647;SDS011;10985;54.182;7.890;2023-08-21T07:59:43;8.55;;;2.97;;
21647;SDS011;10985;54.182;7.890;2023-08-21T08:02:08;15.32;;;3.42;;
21647;SDS011;10985;54.182;7.890;2023-08-21T08:04:35;9.00;;;2.95;;
21647;SDS011;10985;54.182;7.890;2023-08-21T08:07:00;10.00;;;3.50;;
21647;SDS011;10985;54.182;7.890;2023-08-21T08:09:26;12.90;;;3.10;;
21647;SDS011;10985;54.182;7.890;2023-08-21T08:11:51;12.20;;;3.40;;
21647;SDS011;10985;54.182;7.890;2023-08-21T08:14:17;9.38;;;3.08;;
21647;SDS011;10985;54.182;7.890;2023-08-21T08:16:43;6.72;;;3.40;;
21647;SDS011;10985;54.182;7.890;2023-08-21T08:19:08;10.65;;;4.15;;
21647;SDS011;10985;54.182;7.890;2023-08-21T08:21:34;13.18;;;3.60;;
21647;SDS011;10985;54.182;7.890;2023-08-21T08:23:59;9.30;;;2.50;;
21647;SDS011;10985;54.182;7.890;2023-08-21T08:26:24;6.47;;;2.30;;
21647;SDS011;10985;54.182;7.890;2023-08-21T08:28:50;8.98;;;2.53;;
21647;SDS011;10985;54.182;7.890;2023-08-21T08:31:16;8.48;;;3.28;;
21647;SDS011;10985;54.182;7.890;2023-08-21T08:33:42;11.38;;;3.45;;
21647;SDS011;10985;54.182;7.890;2023-08-21T08:36:08;9.75;;;2.47;;
21647;SDS011;10985;54.182;7.890;2023-08-21T08:38:33;8.32;;;2.75;;
21647;SDS011;10985;54.182;7.890;2023-08-21T08:40:59;8.65;;;2.65;;
21647;SDS011;10985;54.182;7.890;2023-08-21T08:43:27;7.80;;;2.05;;
21647;SDS011;10985;54.182;7.890;2023-08-21T08:45:54;9.55;;;2.47;;
21647;SDS011;10985;54.182;7.890;2023-08-21T08:48:23;6.55;;;2.15;;
21647;SDS011;10985;54.182;7.890;2023-08-21T08:50:49;6.20;;;2.20;;
21647;SDS011;10985;54.182;7.890;2023-08-21T08:53:15;7.50;;;2.00;;
21647;SDS011;10985;54.182;7.890;2023-08-21T08:55:43;7.60;;;2.20;;
21647;SDS011;10985;54.182;7.890;2023-08-21T08:58:09;6.40;;;2.00;;
21647;SDS011;10985;54.182;7.890;2023-08-21T09:00:34;9.93;;;3.00;;
21647;SDS011;10985;54.182;7.890;2023-08-21T09:03:00;10.45;;;2.70;;
21647;SDS011;10985;54.182;7.890;2023-08-21T09:05:25;5.90;;;2.00;;
21647;SDS011;10985;54.182;7.890;2023-08-21T09:10:38;7.47;;;2.45;;
21647;SDS011;10985;54.182;7.890;2023-08-21T09:13:08;10.05;;;2.45;;
21647;SDS011;10985;54.182;7.890;2023-08-21T09:15:35;7.68;;;2.45;;
21647;SDS011;10985;54.182;7.890;2023-08-21T09:18:01;8.10;;;1.85;;
21647;SDS011;10985;54.182;7.890;2023-08-21T09:20:27;4.60;;;1.80;;
21647;SDS011;10985;54.182;7.890;2023-08-21T09:22:59;5.60;;;1.67;;
21647;SDS011;10985;54.182;7.890;2023-08-21T09:25:26;7.13;;;2.55;;
21647;SDS011;10985;54.182;7.890;2023-08-21T09:27:52;12.80;;;2.35;;
21647;SDS011;10985;54.182;7.890;2023-08-21T09:30:20;5.55;;;2.13;;
21647;SDS011;10985;54.182;7.890;2023-08-21T09:32:53;6.05;;;2.17;;
21647;SDS011;10985;54.182;7.890;2023-08-21T09:35:24;9.88;;;1.90;;
21647;SDS011;10985;54.182;7.890;2023-08-21T09:37:51;8.48;;;2.08;;
21647;SDS011;10985;54.182;7.890;2023-08-21T09:40:20;5.75;;;1.88;;
21647;SDS011;10985;54.182;7.890;2023-08-21T09:42:51;6.38;;;2.13;;
21647;SDS011;10985;54.182;7.890;2023-08-21T09:45:19;9.25;;;2.22;;
21647;SDS011;10985;54.182;7.890;2023-08-21T09:47:49;9.43;;;2.70;;
21647;SDS011;10985;54.182;7.890;2023-08-21T09:50:16;6.40;;;2.50;;
21647;SDS011;10985;54.182;7.890;2023-08-21T09:52:43;12.20;;;2.85;;
21647;SDS011;10985;54.182;7.890;2023-08-21T09:55:09;10.90;;;2.67;;
21647;SDS011;10985;54.182;7.890;2023-08-21T09:57:35;8.75;;;2.78;;
21647;SDS011;10985;54.182;7.890;2023-08-21T10:00:02;14.98;;;3.33;;
21647;SDS011;10985;54.182;7.890;2023-08-21T10:02:40;7.95;;;3.28;;
21647;SDS011;10985;54.182;7.890;2023-08-21T10:05:10;10.45;;;3.30;;
21647;SDS011;10985;54.182;7.890;2023-08-21T10:07:36;6.38;;;2.45;;
21647;SDS011;10985;54.182;7.890;2023-08-21T10:10:02;11.20;;;3.13;;
21647;SDS011;10985;54.182;7.890;2023-08-21T10:12:28;11.27;;;3.55;;
21647;SDS011;10985;54.182;7.890;2023-08-21T10:14:54;12.05;;;3.65;;
21647;SDS011;10985;54.182;7.890;2023-08-21T10:17:19;10.00;;;3.10;;
21647;SDS011;10985;54.182;7.890;2023-08-21T10:19:50;7.90;;;2.25;;
21647;SDS011;10985;54.182;7.890;2023-08-21T10:22:35;7.03;;;2.53;;
21647;SDS011;10985;54.182;7.890;2023-08-21T10:25:03;9.25;;;2.50;;
21647;SDS011;10985;54.182;7.890;2023-08-21T10:27:38;9.77;;;2.80;;
21647;SDS011;10985;54.182;7.890;2023-08-21T10:30:13;10.35;;;3.45;;
21647;SDS011;10985;54.182;7.890;2023-08-21T10:32:46;9.88;;;2.33;;
21647;SDS011;10985;54.182;7.890;2023-08-21T10:35:17;13.35;;;3.67;;
21647;SDS011;10985;54.182;7.890;2023-08-21T10:40:37;7.68;;;1.92;;
21647;SDS011;10985;54.182;7.890;2023-08-21T10:43:04;6.82;;;2.25;;
21647;SDS011;10985;54.182;7.890;2023-08-21T10:45:53;5.70;;;1.70;;
21647;SDS011;10985;54.182;7.890;2023-08-21T10:48:20;9.00;;;1.95;;
21647;SDS011;10985;54.182;7.890;2023-08-21T10:50:46;7.03;;;2.03;;
21647;SDS011;10985;54.182;7.890;2023-08-21T10:53:12;6.45;;;1.85;;
21647;SDS011;10985;54.182;7.890;2023-08-21T10:55:38;7.50;;;1.88;;
21647;SDS011;10985;54.182;7.890;2023-08-21T10:58:03;6.53;;;1.73;;
21647;SDS011;10985;54.182;7.890;2023-08-21T11:00:29;5.05;;;1.40;;
21647;SDS011;10985;54.182;7.890;2023-08-21T11:02:55;4.38;;;1.70;;
21647;SDS011;10985;54.182;7.890;2023-08-21T11:05:20;6.32;;;1.90;;
21647;SDS011;10985;54.182;7.890;2023-08-21T11:07:46;6.38;;;1.95;;
21647;SDS011;10985;54.182;7.890;2023-08-21T11:10:13;6.80;;;1.73;;
21647;SDS011;10985;54.182;7.890;2023-08-21T11:15:15;7.18;;;1.98;;
21647;SDS011;10985;54.182;7.890;2023-08-21T11:17:42;5.63;;;1.83;;
21647;SDS011;10985;54.182;7.890;2023-08-21T11:20:15;4.00;;;1.50;;
21647;SDS011;10985;54.182;7.890;2023-08-21T11:22:40;7.40;;;2.00;;
21647;SDS011;10985;54.182;7.890;2023-08-21T11:25:06;5.43;;;1.70;;
21647;SDS011;10985;54.182;7.890;2023-08-21T11:27:31;8.68;;;2.65;;
21647;SDS011;10985;54.182;7.890;2023-08-21T11:29:57;6.05;;;1.65;;
21647;SDS011;10985;54.182;7.890;2023-08-21T11:32:23;5.63;;;1.88;;
21647;SDS011;10985;54.182;7.890;2023-08-21T11:34:55;5.55;;;1.38;;
21647;SDS011;10985;54.182;7.890;2023-08-21T11:37:22;5.07;;;1.52;;
21647;SDS011;10985;54.182;7.890;2023-08-21T11:39:53;4.00;;;1.60;;
21647;SDS011;10985;54.182;7.890;2023-08-21T11:42:21;3.72;;;1.42;;
21647;SDS011;10985;54.182;7.890;2023-08-21T11:44:53;3.55;;;1.30;;
21647;SDS011;10985;54.182;7.890;2023-08-21T11:47:19;4.30;;;1.33;;
21647;SDS011;10985;54.182;7.890;2023-08-21T11:49:46;5.10;;;2.05;;
21647;SDS011;10985;54.182;7.890;2023-08-21T11:52:14;5.88;;;1.38;;
21647;SDS011;10985;54.182;7.890;2023-08-21T11:54:43;6.57;;;1.83;;
21647;SDS011;10985;54.182;7.890;2023-08-21T11:57:13;5.50;;;1.75;;
21647;SDS011;10985;54.182;7.890;2023-08-21T11:59:39;7.97;;;1.95;;
21647;SDS011;10985;54.182;7.890;2023-08-21T12:02:09;6.97;;;2.50;;
21647;SDS011;10985;54.182;7.890;2023-08-21T12:05:05;6.25;;;1.75;;
21647;SDS011;10985;54.182;7.890;2023-08-21T12:07:32;7.15;;;1.73;;
21647;SDS011;10985;54.182;7.890;2023-08-21T12:09:57;4.85;;;1.90;;
21647;SDS011;10985;54.182;7.890;2023-08-21T12:12:23;6.03;;;1.80;;
21647;SDS011;10985;54.182;7.890;2023-08-21T12:14:49;5.57;;;2.00;;
21647;SDS011;10985;54.182;7.890;2023-08-21T12:17:15;7.45;;;1.80;;
21647;SDS011;10985;54.182;7.890;2023-08-21T12:19:41;5.90;;;2.30;;
21647;SDS011;10985;54.182;7.890;2023-08-21T12:22:09;5.57;;;1.83;;
21647;SDS011;10985;54.182;7.890;2023-08-21T12:24:35;5.65;;;1.70;;
21647;SDS011;10985;54.182;7.890;2023-08-21T12:27:02;6.53;;;2.53;;
21647;SDS011;10985;54.182;7.890;2023-08-21T12:29:28;7.50;;;2.05;;
21647;SDS011;10985;54.182;7.890;2023-08-21T12:31:53;3.50;;;1.63;;
21647;SDS011;10985;54.182;7.890;2023-08-21T12:34:19;4.13;;;1.50;;
21647;SDS011;10985;54.182;7.890;2023-08-21T12:36:45;8.18;;;1.90;;
21647;SDS011;10985;54.182;7.890;2023-08-21T12:39:10;3.08;;;1.52;;
21647;SDS011;10985;54.182;7.890;2023-08-21T12:41:36;5.28;;;1.58;;
21647;SDS011;10985;54.182;7.890;2023-08-21T12:44:01;5.72;;;1.60;;
21647;SDS011;10985;54.182;7.890;2023-08-21T12:46:33;4.82;;;1.45;;
21647;SDS011;10985;54.182;7.890;2023-08-21T12:48:59;5.78;;;2.10;;
21647;SDS011;10985;54.182;7.890;2023-08-21T12:51:26;5.22;;;1.90;;
21647;SDS011;10985;54.182;7.890;2023-08-21T12:53:52;4.03;;;2.10;;
21647;SDS011;10985;54.182;7.890;2023-08-21T12:56:17;5.20;;;1.70;;
21647;SDS011;10985;54.182;7.890;2023-08-21T12:58:43;3.42;;;1.40;;
21647;SDS011;10985;54.182;7.890;2023-08-21T13:01:09;5.40;;;1.70;;
21647;SDS011;10985;54.182;7.890;2023-08-21T13:03:34;3.72;;;1.60;;
21647;SDS011;10985;54.182;7.890;2023-08-21T13:06:00;3.58;;;1.60;;
21647;SDS011;10985;54.182;7.890;2023-08-21T13:08:25;4.95;;;2.10;;
21647;SDS011;10985;54.182;7.890;2023-08-21T13:10:51;6.38;;;1.77;;
21647;SDS011;10985;54.182;7.890;2023-08-21T13:13:17;2.75;;;1.30;;
21647;SDS011;10985;54.182;7.890;2023-08-21T13:15:43;4.05;;;1.50;;
21647;SDS011;10985;54.182;7.890;2023-08-21T13:18:09;3.17;;;1.58;;
21647;SDS011;10985;54.182;7.890;2023-08-21T13:20:35;6.20;;;1.55;;
21647;SDS011;10985;54.182;7.890;2023-08-21T13:23:01;7.70;;;1.48;;
21647;SDS011;10985;54.182;7.890;2023-08-21T13:25:27;6.22;;;2.10;;
21647;SDS011;10985;54.182;7.890;2023-08-21T13:27:53;3.00;;;1.40;;
21647;SDS011;10985;54.182;7.890;2023-08-21T13:30:19;5.88;;;1.50;;
21647;SDS011;10985;54.182;7.890;2023-08-21T13:32:45;5.68;;;1.73;;
21647;SDS011;10985;54.182;7.890;2023-08-21T13:35:11;3.88;;;1.50;;
21647;SDS011;10985;54.182;7.890;2023-08-21T13:37:37;3.50;;;1.20;;
21647;SDS011;10985;54.182;7.890;2023-08-21T13:40:03;3.72;;;1.30;;
21647;SDS011;10985;54.182;7.890;2023-08-21T13:42:38;5.72;;;1.48;;
21647;SDS011;10985;54.182;7.890;2023-08-21T13:45:08;6.13;;;1.45;;
21647;SDS011;10985;54.182;7.890;2023-08-21T13:47:37;5.55;;;1.65;;
21647;SDS011;10985;54.182;7.890;2023-08-21T13:50:04;6.53;;;1.70;;
21647;SDS011;10985;54.182;7.890;2023-08-21T13:52:30;3.50;;;1.63;;
21647;SDS011;10985;54.182;7.890;2023-08-21T13:54:56;4.93;;;1.60;;
21647;SDS011;10985;54.182;7.890;2023-08-21T13:57:21;3.35;;;1.58;;
21647;SDS011;10985;54.182;7.890;2023-08-21T13:59:47;3.58;;;1.55;;
21647;SDS011;10985;54.182;7.890;2023-08-21T14:02:12;6.05;;;1.73;;
21647;SDS011;10985;54.182;7.890;2023-08-21T14:04:38;3.72;;;1.77;;
21647;SDS011;10985;54.182;7.890;2023-08-21T14:07:04;6.05;;;1.80;;
21647;SDS011;10985;54.182;7.890;2023-08-21T14:09:29;6.38;;;1.95;;
21647;SDS011;10985;54.182;7.890;2023-08-21T14:11:54;5.57;;;2.15;;
21647;SDS011;10985;54.182;7.890;2023-08-21T14:14:20;4.55;;;1.88;;
21647;SDS011;10985;54.182;7.890;2023-08-21T14:16:45;3.47;;;1.60;;
21647;SDS011;10985;54.182;7.890;2023-08-21T14:19:11;8.45;;;2.03;;
21647;SDS011;10985;54.182;7.890;2023-08-21T14:21:37;5.88;;;1.60;;
21647;SDS011;10985;54.182;7.890;2023-08-21T14:24:02;2.88;;;1.60;;
21647;SDS011;10985;54.182;7.890;2023-08-21T14:26:28;5.32;;;1.60;;
21647;SDS011;10985;54.182;7.890;2023-08-21T14:28:53;7.10;;;1.67;;
21647;SDS011;10985;54.182;7.890;2023-08-21T14:31:19;6.55;;;1.98;;
21647;SDS011;10985;54.182;7.890;2023-08-21T14:33:45;2.22;;;1.17;;
21647;SDS011;10985;54.182;7.890;2023-08-21T14:36:10;4.05;;;1.80;;
21647;SDS011;10985;54.182;7.890;2023-08-21T14:38:36;5.82;;;2.20;;
21647;SDS011;10985;54.182;7.890;2023-08-21T14:41:01;5.82;;;1.98;;
21647;SDS011;10985;54.182;7.890;2023-08-21T14:43:27;4.38;;;1.88;;
21647;SDS011;10985;54.182;7.890;2023-08-21T14:45:53;6.05;;;1.92;;
21647;SDS011;10985;54.182;7.890;2023-08-21T14:48:18;4.72;;;1.92;;
21647;SDS011;10985;54.182;7.890;2023-08-21T14:50:44;4.07;;;1.50;;